16°C
Gosport, Hampshire, United Kingdom
Language:  English
Updated19/10/2017 11:35:00 
 

Nearby METAR Reports

 

EGHI - Southampton Wx Centre, United Kingdom
Distance from station: NW 15mi, 24km
Updated: 19-Oct-2017 11:20:00
Mostly cloudy
Mostly cloudy
 Wind from SE
Wind: SE 9 mph , 15 km/h
Temperature: 16°C
Dew Point: 14°C
Humidity: 88%
Barometer: 1003 hPa
Clouds: Mostly cloudy
Visibility: 4 miles , 7 km
Cloud details: Partly cloudy 244 m
Mostly cloudy 549 m
2017/10/19 10:20 EGHI 191020Z 13008KT 090V160 7000 SCT008 BKN018 16/14 Q1003
EGHH - Bournemouth Airport, United Kingdom
Distance from station: W 30mi, 49km
Updated: 19-Oct-2017 11:20:00
Mostly cloudy
Mostly cloudy
 Wind from SE
Wind: SE 9 mph , 15 km/h
Temperature: 17°C
Dew Point: 16°C
Humidity: 94%
Barometer: 1002 hPa
Clouds: Mostly cloudy
Visibility: 4 miles , 6 km
Cloud details: Mostly cloudy 152 m
2017/10/19 10:20 EGHH 191020Z 14008KT 100V170 6000 BKN005 17/16 Q1002
EGVP - Middle Wallop Airfield, United Kingdom
Distance from station: NW 31mi, 49km
Updated: 19-Oct-2017 11:09:00
Mist, Mostly cloudy
Mist, Mostly cloudy
 Wind from SE
Wind: SE 10 mph , 17 km/h
Temperature: 16°C
Dew Point: 15°C
Humidity: 94%
Barometer: 1003 hPa
Summary: Mist
Clouds: Mostly cloudy
Visibility: 2 miles , 4 km
Cloud details: Few Clouds 183 m
Mostly cloudy 1372 m
2017/10/19 10:09 EGVP 191009Z 13009KT 4000 BR FEW006 BKN045 16/15 Q1003 GRN TEMPO SCT006 YLO1
 
EGVO - RAF Odiham, United Kingdom
Distance from station: NNE 32mi, 52km
Updated: 19-Oct-2017 11:18:00
Haze, Partly cloudy
Haze, Partly cloudy
 Wind from ESE
Wind: ESE 13 mph , 20 km/h
Temperature: 16°C
Dew Point: 15°C
Humidity: 94%
Barometer: 1003 hPa
Summary: Haze
Clouds: Partly cloudy
Visibility: 2 miles , 4 km
Cloud details: Partly cloudy 213 m
Partly cloudy 3353 m
2017/10/19 10:18 EGVO 191018Z 12011KT 4000 HZ SCT007 SCT110 16/15 Q1003 GRN BECMG 5000 GRN
EGKA - Shoreham Airport, United Kingdom
Distance from station: E 37mi, 59km
Updated: 19-Oct-2017 10:50:00
Partly cloudy
Partly cloudy
 Wind from SE
Wind: SE 8 mph , 13 km/h
Temperature: 16°C
Dew Point: 15°C
Humidity: 94%
Barometer: 1004 hPa
Clouds: Partly cloudy
Visibility: 6 miles , 9 km
Cloud details: Few Clouds 335 m
Partly cloudy 457 m
2017/10/19 09:50 EGKA 190950Z 13007KT 9000 FEW011 SCT015 16/15 Q1004
EGDM - Boscombe Down, United Kingdom
Distance from station: NW 38mi, 61km
Updated: 19-Oct-2017 11:21:00
Mist, Mostly cloudy
Mist, Mostly cloudy
 Wind from SE
Wind: SE 10 mph , 17 km/h
Temperature: 15°C
Dew Point: 15°C
Humidity: 100%
Barometer: 1003 hPa
Summary: Mist
Clouds: Mostly cloudy
Visibility: 3 miles , 5 km
Cloud details: Few Clouds 122 m
Mostly cloudy 183 m
Mostly cloudy 1433 m
2017/10/19 10:21 EGDM 191021Z 13009KT 5000 BR FEW004 BKN006 BKN047 15/15 Q1003 YLO1 BECMG 8000 BKN008 GRN
 
EGLF - Farnborough, United Kingdom
Distance from station: NNE 38mi, 61km
Updated: 19-Oct-2017 11:20:00
Mist, Mostly cloudy
Mist, Mostly cloudy
 Wind from ESE
Wind: ESE 8 mph , 13 km/h
Temperature: 16°C
Dew Point: 16°C
Humidity: 100%
Barometer: 1004 hPa
Summary: Mist
Clouds: Mostly cloudy
Visibility: 2 miles , 4 km
Cloud details: Mostly cloudy 244 m
2017/10/19 10:20 EGLF 191020Z 12007KT 100V160 4000 BR BKN008 16/16 Q1004
EGKK - Gatwick Airport, United Kingdom
Distance from station: ENE 49mi, 78km
Updated: 19-Oct-2017 11:20:00
Few Clouds
Few Clouds
 Wind from E
Wind: E 5 mph , 7 km/h
Temperature: 16°C
Dew Point: 15°C
Humidity: 94%
Barometer: 1004 hPa
Clouds: Few Clouds
Visibility: 5 miles , 8 km
Cloud details: Few Clouds 366 m
2017/10/19 10:20 EGKK 191020Z 09004KT 060V120 8000 FEW012 16/15 Q1004
EGLL - Heathrow Airport, United Kingdom
Distance from station: NNE 57mi, 91km
Updated: 19-Oct-2017 11:20:00
Haze, Partly cloudy
Haze, Partly cloudy
 Wind from E
Wind: E 9 mph , 15 km/h
Temperature: 16°C
Dew Point: 15°C
Humidity: 94%
Barometer: 1004 hPa
Summary: Haze
Clouds: Partly cloudy
Visibility: 2 miles , 3 km
Cloud details: Few Clouds 152 m
Partly cloudy 610 m
2017/10/19 10:20 EGLL 191020Z AUTO 10008KT 2800 HZ FEW005 SCT020 16/15 Q1004
 
EGUB - RAF Benson, United Kingdom
Distance from station: N 58mi, 93km
Updated: 19-Oct-2017 10:50:00
Light rain, Mostly cloudy
Light rain, Mostly cloudy
 Wind from ESE
Wind: ESE 6 mph , 9 km/h
Temperature: 16°C
Dew Point: 15°C
Humidity: 94%
Barometer: 1004 hPa
Summary: Light rain
Clouds: Mostly cloudy
Visibility: 2 miles , 4 km
Cloud details: Mostly cloudy 152 m
Mostly cloudy 1524 m
2017/10/19 09:50 EGUB 190950Z 11005KT 4000 -RA BKN005 BKN050 16/15 Q1004 YLO1 TEMPO 3000 -RADZ YLO1
EGWU - RAF Northolt, United Kingdom
Distance from station: NNE 62mi, 99km
Updated: 19-Oct-2017 10:50:00
Light drizzle, Mostly cloudy
Light drizzle, Mostly cloudy
 Wind from E
Wind: E 6 mph , 9 km/h
Temperature: 16°C
Dew Point: 15°C
Humidity: 94%
Barometer: 1004 hPa
Summary: Light Drizzle
Clouds: Mostly cloudy
Visibility: 2 miles , 4 km
Cloud details: Mostly cloudy 152 m
2017/10/19 09:50 EGWU 190950Z 10005KT 3700 -DZ BKN005 16/15 Q1004 BECMG 9999 NSW BKN007
EGKB - Biggin Hill Airport, United Kingdom
Distance from station: NE 62mi, 100km
Updated: 19-Oct-2017 11:20:00
Few Clouds
Few Clouds
 Wind from SSE
Wind: SSE 13 mph , 20 km/h
Temperature: 15°C
Dew Point: 14°C
Humidity: 94%
Barometer: 1004 hPa
Clouds: Few Clouds
Visibility: 5 miles , 8 km
Cloud details: Few Clouds 30 m
2017/10/19 10:20 EGKB 191020Z 15011KT 8000 FEW001 15/14 Q1004
 
EGDY - RNAS Yeovilton, United Kingdom
Distance from station: WNW 66mi, 107km
Updated: 19-Oct-2017 11:17:00
Light rain, Drizzle, Mostly cloudy
Light rain, Drizzle, Mostly cloudy
 Wind from ESE
Wind: ESE 7 mph , 11 km/h
Temperature: 15°C
Dew Point: 14°C
Humidity: 94%
Barometer: 1001 hPa
Summary: Light rain, Drizzle
Clouds: Mostly cloudy
Visibility: 2 miles , 4 km
Cloud details: Partly cloudy 183 m
Partly cloudy 305 m
Mostly cloudy 1067 m
2017/10/19 10:17 EGDY 191017Z 12006KT 3500 -RADZ SCT006 SCT010 BKN035 15/14 Q1001 YLO1 TEMPO 2000 RADZ SCT004 YLO2
EGUO - Colerne Airfield, United Kingdom
Distance from station: NW 67mi, 108km
Updated: 19-Jul-2017 11:50:00
NOT Current
Light drizzle, Overcast
Light drizzle, Overcast
 Wind from SE
Wind: SE 6 mph , 9 km/h
Temperature: 20°C
Dew Point: 18°C
Humidity: 88%
Barometer: 1004 hPa
Summary: Light Drizzle
Clouds: Overcast
Visibility: 3 miles , 5 km
Cloud details: Overcast 274 m
2017/07/19 10:50 EGUO 191050Z 13005KT 5000 -DZ OVC009 20/18 Q1004 GRN TEMPO 8000 HZ GRN
EGVA - RAF Fairford, United Kingdom
Distance from station: NNW 67mi, 108km
Updated: 19-Oct-2017 11:26:00
Mist, Overcast
Mist, Overcast
 Wind from E
Wind: E 7 mph , 11 km/h
Temperature: 14°C
Dew Point: 14°C
Humidity: 100%
Barometer: 1002.7 hPa
Summary: Mist
Clouds: Overcast
Visibility: 4 miles , 6 km
Cloud details: Overcast 152 m
2017/10/19 10:26 EGVA 191026Z AUTO 08006KT 6000 BR OVC005 14/14 A2961 RMK AO2 CIG 002 RWY09 SLP030 $
 
EGVN - RAF Brize Norton, United Kingdom
Distance from station: NNW 71mi, 114km
Updated: 19-Oct-2017 10:50:00
Rain drizzle, Overcast
Rain drizzle, Overcast
 Wind from ESE
Wind: ESE 6 mph , 9 km/h
Temperature: 14°C
Dew Point: 14°C
Humidity: 100%
Barometer: 1004 hPa
Summary: Rain Drizzle
Clouds: Overcast
Visibility: 1 mile , 2 km
Cloud details: Overcast 91 m
2017/10/19 09:50 EGVN 190950Z 11005KT 1600 RADZ OVC003 14/14 Q1004 YLO2 BECMG 6000 -RA BKN007 GRN
EGLC - London City Airport, United Kingdom
Distance from station: NE 71mi, 115km
Updated: 19-Oct-2017 11:20:00
Haze, Partly cloudy
Haze, Partly cloudy
 Wind from E
Wind: E 7 mph , 11 km/h
Temperature: 16°C
Dew Point: 15°C
Humidity: 94%
Barometer: 1004 hPa
Summary: Haze
Clouds: Partly cloudy
Visibility: 3 miles , 5 km
Cloud details: Partly cloudy 183 m
2017/10/19 10:20 EGLC 191020Z AUTO 10006KT 4500 HZ SCT006 16/15 Q1004
EGGD - Bristol Airport, United Kingdom
Distance from station: WNW 80mi, 128km
Updated: 19-Oct-2017 11:20:00
Light rain, Drizzle, Mist, Overcast
Light rain, Drizzle, Mist, Overcast
 Wind from E
Wind: E 9 mph , 15 km/h
Temperature: 12°C
Dew Point: 12°C
Humidity: 100%
Barometer: 1002 hPa
Summary: Light rain, Drizzle, Mist
Clouds: Overcast
Visibility: 2 miles , 3 km
Cloud details: Overcast 30 m
2017/10/19 10:20 EGGD 191020Z 10008KT 2700 -RADZ BR OVC001 12/12 Q1002
 
LFRC - Cherbourg-Maupertus Airport, France
Distance from station: S 81mi, 130km
Updated: 19-Oct-2017 11:30:00
Overcast
Overcast
 Wind from SSW
Wind: SSW 21 mph , 33 km/h
Temperature: 15°C
Dew Point: 14°C
Humidity: 94%
Barometer: 1004 hPa
Clouds: Overcast
Visibility: 4 miles , 6 km
Cloud details: Overcast 183 m
2017/10/19 10:30 LFRC 191030Z AUTO 20018KT 6000 OVC006 15/14 Q1004 TEMPO 4000 RA BECMG 19020G30KT BKN020
EGGW - Luton Airport, United Kingdom
Distance from station: NNE 82mi, 132km
Updated: 19-Oct-2017 11:20:00
Light rain, Drizzle, Overcast
Light rain, Drizzle, Overcast
 Wind from SE
Wind: SE 8 mph , 13 km/h
Temperature: 15°C
Dew Point: 15°C
Humidity: 100%
Barometer: 1004 hPa
Summary: Light rain, Drizzle
Clouds: Overcast
Visibility: 1 mile , 1 km
Cloud details: Overcast 30 m
2017/10/19 10:20 EGGW 191020Z AUTO 13007KT 0900 R08/1300 -RADZ OVC001 15/15 Q1004